sensor_id;sensor_type;location;lat;lon;timestamp;temperature;humidity
16968;DHT22;8600;54.338;10.128;2022-08-24T00:01:23;18.70;99.90
16968;DHT22;8600;54.338;10.128;2022-08-24T00:03:50;18.60;99.90
16968;DHT22;8600;54.338;10.128;2022-08-24T00:06:19;18.60;99.90
16968;DHT22;8600;54.338;10.128;2022-08-24T00:08:47;18.60;99.90
16968;DHT22;8600;54.338;10.128;2022-08-24T00:11:15;18.60;99.90
16968;DHT22;8600;54.338;10.128;2022-08-24T00:13:43;18.60;99.90
16968;DHT22;8600;54.338;10.128;2022-08-24T00:16:11;18.60;99.90
16968;DHT22;8600;54.338;10.128;2022-08-24T00:18:40;18.50;99.90
16968;DHT22;8600;54.338;10.128;2022-08-24T00:21:07;18.60;99.90
16968;DHT22;8600;54.338;10.128;2022-08-24T00:23:34;18.60;99.90
16968;DHT22;8600;54.338;10.128;2022-08-24T00:26:02;18.60;99.90
16968;DHT22;8600;54.338;10.128;2022-08-24T00:28:30;18.60;99.90
16968;DHT22;8600;54.338;10.128;2022-08-24T00:30:57;18.50;99.90
16968;DHT22;8600;54.338;10.128;2022-08-24T00:33:24;18.50;99.90
16968;DHT22;8600;54.338;10.128;2022-08-24T00:35:54;18.50;99.90
16968;DHT22;8600;54.338;10.128;2022-08-24T00:38:21;18.50;99.90
16968;DHT22;8600;54.338;10.128;2022-08-24T00:40:48;18.50;99.90
16968;DHT22;8600;54.338;10.128;2022-08-24T00:43:18;18.50;99.90
16968;DHT22;8600;54.338;10.128;2022-08-24T00:45:48;18.50;99.90
16968;DHT22;8600;54.338;10.128;2022-08-24T00:48:21;18.40;99.90
16968;DHT22;8600;54.338;10.128;2022-08-24T00:50:59;18.40;99.90
16968;DHT22;8600;54.338;10.128;2022-08-24T00:53:30;18.30;99.90
16968;DHT22;8600;54.338;10.128;2022-08-24T00:56:02;18.30;99.90
16968;DHT22;8600;54.338;10.128;2022-08-24T00:58:38;18.30;99.90
16968;DHT22;8600;54.338;10.128;2022-08-24T01:01:07;18.30;99.90
16968;DHT22;8600;54.338;10.128;2022-08-24T01:03:36;18.30;99.90
16968;DHT22;8600;54.338;10.128;2022-08-24T01:06:05;18.20;99.90
16968;DHT22;8600;54.338;10.128;2022-08-24T01:08:32;18.20;99.90
16968;DHT22;8600;54.338;10.128;2022-08-24T01:11:02;18.20;99.90
16968;DHT22;8600;54.338;10.128;2022-08-24T01:13:32;18.20;99.90
16968;DHT22;8600;54.338;10.128;2022-08-24T01:16:01;18.20;99.90
16968;DHT22;8600;54.338;10.128;2022-08-24T01:18:29;18.20;99.90
16968;DHT22;8600;54.338;10.128;2022-08-24T01:21:17;18.20;99.90
16968;DHT22;8600;54.338;10.128;2022-08-24T01:23:48;18.20;99.90
16968;DHT22;8600;54.338;10.128;2022-08-24T01:26:18;18.20;99.90
16968;DHT22;8600;54.338;10.128;2022-08-24T01:28:49;18.20;99.90
16968;DHT22;8600;54.338;10.128;2022-08-24T01:31:19;18.20;99.90
16968;DHT22;8600;54.338;10.128;2022-08-24T01:33:48;18.20;99.90
16968;DHT22;8600;54.338;10.128;2022-08-24T01:36:19;18.20;99.90
16968;DHT22;8600;54.338;10.128;2022-08-24T01:38:49;18.10;99.90
16968;DHT22;8600;54.338;10.128;2022-08-24T01:41:17;18.10;99.90
16968;DHT22;8600;54.338;10.128;2022-08-24T01:43:44;18.10;99.90
16968;DHT22;8600;54.338;10.128;2022-08-24T01:46:11;18.10;99.90
16968;DHT22;8600;54.338;10.128;2022-08-24T01:48:38;18.10;99.90
16968;DHT22;8600;54.338;10.128;2022-08-24T01:51:05;18.10;99.90
16968;DHT22;8600;54.338;10.128;2022-08-24T01:53:32;18.10;99.90
16968;DHT22;8600;54.338;10.128;2022-08-24T01:56:01;18.00;99.90
16968;DHT22;8600;54.338;10.128;2022-08-24T01:58:29;18.00;99.90
16968;DHT22;8600;54.338;10.128;2022-08-24T02:00:57;18.00;99.90
16968;DHT22;8600;54.338;10.128;2022-08-24T02:03:25;18.00;99.90
16968;DHT22;8600;54.338;10.128;2022-08-24T02:05:54;18.00;99.90
16968;DHT22;8600;54.338;10.128;2022-08-24T02:08:21;17.90;99.90
16968;DHT22;8600;54.338;10.128;2022-08-24T02:10:50;17.90;99.90
16968;DHT22;8600;54.338;10.128;2022-08-24T02:13:19;17.90;99.90
16968;DHT22;8600;54.338;10.128;2022-08-24T02:15:46;17.90;99.90
16968;DHT22;8600;54.338;10.128;2022-08-24T02:18:13;17.90;99.90
16968;DHT22;8600;54.338;10.128;2022-08-24T02:20:41;17.90;99.90
16968;DHT22;8600;54.338;10.128;2022-08-24T02:23:09;17.90;99.90
16968;DHT22;8600;54.338;10.128;2022-08-24T02:25:36;17.90;99.90
16968;DHT22;8600;54.338;10.128;2022-08-24T02:28:04;17.90;99.90
16968;DHT22;8600;54.338;10.128;2022-08-24T02:30:32;17.80;99.90
16968;DHT22;8600;54.338;10.128;2022-08-24T02:32:59;17.80;99.90
16968;DHT22;8600;54.338;10.128;2022-08-24T02:35:28;17.80;99.90
16968;DHT22;8600;54.338;10.128;2022-08-24T02:37:56;17.80;99.90
16968;DHT22;8600;54.338;10.128;2022-08-24T02:40:24;17.80;99.90
16968;DHT22;8600;54.338;10.128;2022-08-24T02:42:52;17.80;99.90
16968;DHT22;8600;54.338;10.128;2022-08-24T02:45:20;17.80;99.90
16968;DHT22;8600;54.338;10.128;2022-08-24T02:47:50;17.80;99.90
16968;DHT22;8600;54.338;10.128;2022-08-24T02:50:19;17.80;99.90
16968;DHT22;8600;54.338;10.128;2022-08-24T02:52:46;17.80;99.90
16968;DHT22;8600;54.338;10.128;2022-08-24T02:55:16;17.80;99.90
16968;DHT22;8600;54.338;10.128;2022-08-24T02:57:44;17.80;99.90
16968;DHT22;8600;54.338;10.128;2022-08-24T03:00:15;17.80;99.90
16968;DHT22;8600;54.338;10.128;2022-08-24T03:02:51;17.80;99.90
16968;DHT22;8600;54.338;10.128;2022-08-24T03:05:19;17.80;99.90
16968;DHT22;8600;54.338;10.128;2022-08-24T03:07:46;17.80;99.90
16968;DHT22;8600;54.338;10.128;2022-08-24T03:10:14;17.80;99.90
16968;DHT22;8600;54.338;10.128;2022-08-24T03:12:41;17.80;99.90
16968;DHT22;8600;54.338;10.128;2022-08-24T03:15:10;17.80;99.90
16968;DHT22;8600;54.338;10.128;2022-08-24T03:17:38;17.80;99.90
16968;DHT22;8600;54.338;10.128;2022-08-24T03:20:10;17.80;99.90
16968;DHT22;8600;54.338;10.128;2022-08-24T03:22:37;17.80;99.90
16968;DHT22;8600;54.338;10.128;2022-08-24T03:25:06;17.80;99.90
16968;DHT22;8600;54.338;10.128;2022-08-24T03:27:33;17.80;99.90
16968;DHT22;8600;54.338;10.128;2022-08-24T03:30:00;17.80;99.90
16968;DHT22;8600;54.338;10.128;2022-08-24T03:32:28;17.80;99.90
16968;DHT22;8600;54.338;10.128;2022-08-24T03:34:55;17.70;99.90
16968;DHT22;8600;54.338;10.128;2022-08-24T03:37:24;17.70;99.90
16968;DHT22;8600;54.338;10.128;2022-08-24T03:39:52;17.70;99.90
16968;DHT22;8600;54.338;10.128;2022-08-24T03:42:19;17.70;99.90
16968;DHT22;8600;54.338;10.128;2022-08-24T03:44:46;17.70;99.90
16968;DHT22;8600;54.338;10.128;2022-08-24T03:47:14;17.60;99.90
16968;DHT22;8600;54.338;10.128;2022-08-24T03:49:42;17.70;99.90
16968;DHT22;8600;54.338;10.128;2022-08-24T03:52:09;17.70;99.90
16968;DHT22;8600;54.338;10.128;2022-08-24T03:54:37;17.60;99.90
16968;DHT22;8600;54.338;10.128;2022-08-24T03:57:05;17.60;99.90
16968;DHT22;8600;54.338;10.128;2022-08-24T03:59:32;17.60;99.90
16968;DHT22;8600;54.338;10.128;2022-08-24T04:01:59;17.60;99.90
16968;DHT22;8600;54.338;10.128;2022-08-24T04:04:26;17.60;99.90
16968;DHT22;8600;54.338;10.128;2022-08-24T04:06:55;17.60;99.90
16968;DHT22;8600;54.338;10.128;2022-08-24T04:09:24;17.60;99.90
16968;DHT22;8600;54.338;10.128;2022-08-24T04:11:53;17.60;99.90
16968;DHT22;8600;54.338;10.128;2022-08-24T04:14:22;17.60;99.90
16968;DHT22;8600;54.338;10.128;2022-08-24T04:16:53;17.60;99.90
16968;DHT22;8600;54.338;10.128;2022-08-24T04:19:27;17.60;99.90
16968;DHT22;8600;54.338;10.128;2022-08-24T04:21:55;17.50;99.90
16968;DHT22;8600;54.338;10.128;2022-08-24T04:24:24;17.50;99.90
16968;DHT22;8600;54.338;10.128;2022-08-24T04:26:53;17.50;99.90
16968;DHT22;8600;54.338;10.128;2022-08-24T04:29:20;17.50;99.90
16968;DHT22;8600;54.338;10.128;2022-08-24T04:31:50;17.50;99.90
16968;DHT22;8600;54.338;10.128;2022-08-24T04:34:18;17.50;99.90
16968;DHT22;8600;54.338;10.128;2022-08-24T04:36:45;17.50;99.90
16968;DHT22;8600;54.338;10.128;2022-08-24T04:39:13;17.60;99.90
16968;DHT22;8600;54.338;10.128;2022-08-24T04:42:04;17.50;99.90
16968;DHT22;8600;54.338;10.128;2022-08-24T04:44:36;17.60;99.90
16968;DHT22;8600;54.338;10.128;2022-08-24T04:47:03;17.50;99.90
16968;DHT22;8600;54.338;10.128;2022-08-24T04:49:30;17.50;99.90
16968;DHT22;8600;54.338;10.128;2022-08-24T04:51:58;17.50;99.90
16968;DHT22;8600;54.338;10.128;2022-08-24T04:54:25;17.50;99.90
16968;DHT22;8600;54.338;10.128;2022-08-24T04:57:05;17.50;99.90
16968;DHT22;8600;54.338;10.128;2022-08-24T04:59:32;17.50;99.90
16968;DHT22;8600;54.338;10.128;2022-08-24T05:02:00;17.50;99.90
16968;DHT22;8600;54.338;10.128;2022-08-24T05:04:27;17.50;99.90
16968;DHT22;8600;54.338;10.128;2022-08-24T05:06:54;17.50;99.90
16968;DHT22;8600;54.338;10.128;2022-08-24T05:09:21;17.50;99.90
16968;DHT22;8600;54.338;10.128;2022-08-24T05:11:48;17.60;99.90
16968;DHT22;8600;54.338;10.128;2022-08-24T05:14:20;17.60;99.90
16968;DHT22;8600;54.338;10.128;2022-08-24T05:16:47;17.60;99.90
16968;DHT22;8600;54.338;10.128;2022-08-24T05:19:14;17.60;99.90
16968;DHT22;8600;54.338;10.128;2022-08-24T05:21:41;17.70;99.90
16968;DHT22;8600;54.338;10.128;2022-08-24T05:24:09;17.70;99.90
16968;DHT22;8600;54.338;10.128;2022-08-24T05:26:36;17.70;99.90
16968;DHT22;8600;54.338;10.128;2022-08-24T05:29:03;17.80;99.90
16968;DHT22;8600;54.338;10.128;2022-08-24T05:31:42;17.80;99.90
16968;DHT22;8600;54.338;10.128;2022-08-24T05:34:11;17.80;99.90
16968;DHT22;8600;54.338;10.128;2022-08-24T05:36:39;17.90;99.90
16968;DHT22;8600;54.338;10.128;2022-08-24T05:39:12;17.90;99.90
16968;DHT22;8600;54.338;10.128;2022-08-24T05:41:43;18.00;99.90
16968;DHT22;8600;54.338;10.128;2022-08-24T05:44:31;18.10;99.90
16968;DHT22;8600;54.338;10.128;2022-08-24T05:47:01;18.20;99.90
16968;DHT22;8600;54.338;10.128;2022-08-24T05:49:29;18.40;99.90
16968;DHT22;8600;54.338;10.128;2022-08-24T05:51:57;18.60;99.90
16968;DHT22;8600;54.338;10.128;2022-08-24T05:54:24;18.70;99.90
16968;DHT22;8600;54.338;10.128;2022-08-24T05:57:00;18.90;99.90
16968;DHT22;8600;54.338;10.128;2022-08-24T05:59:32;19.10;99.90
16968;DHT22;8600;54.338;10.128;2022-08-24T06:02:07;19.20;99.90
16968;DHT22;8600;54.338;10.128;2022-08-24T06:04:34;19.30;99.90
16968;DHT22;8600;54.338;10.128;2022-08-24T06:07:04;19.40;99.90
16968;DHT22;8600;54.338;10.128;2022-08-24T06:09:35;19.60;99.90
16968;DHT22;8600;54.338;10.128;2022-08-24T06:12:03;19.70;99.90
16968;DHT22;8600;54.338;10.128;2022-08-24T06:14:30;19.80;99.90
16968;DHT22;8600;54.338;10.128;2022-08-24T06:16:59;20.10;99.90
16968;DHT22;8600;54.338;10.128;2022-08-24T06:19:28;20.20;99.90
16968;DHT22;8600;54.338;10.128;2022-08-24T06:21:55;20.40;99.90
16968;DHT22;8600;54.338;10.128;2022-08-24T06:24:25;20.30;99.90
16968;DHT22;8600;54.338;10.128;2022-08-24T06:27:06;20.60;99.90
16968;DHT22;8600;54.338;10.128;2022-08-24T06:29:55;20.60;99.90
16968;DHT22;8600;54.338;10.128;2022-08-24T06:32:42;20.60;99.90
16968;DHT22;8600;54.338;10.128;2022-08-24T06:35:16;20.70;99.90
16968;DHT22;8600;54.338;10.128;2022-08-24T06:37:43;21.00;99.90
16968;DHT22;8600;54.338;10.128;2022-08-24T06:40:11;20.90;99.90
16968;DHT22;8600;54.338;10.128;2022-08-24T06:42:38;21.30;99.90
16968;DHT22;8600;54.338;10.128;2022-08-24T06:45:16;21.40;99.90
16968;DHT22;8600;54.338;10.128;2022-08-24T06:47:44;21.90;99.90
16968;DHT22;8600;54.338;10.128;2022-08-24T06:50:11;22.00;99.90
16968;DHT22;8600;54.338;10.128;2022-08-24T06:52:40;21.70;99.90
16968;DHT22;8600;54.338;10.128;2022-08-24T06:55:08;22.00;99.90
16968;DHT22;8600;54.338;10.128;2022-08-24T06:57:35;22.00;99.90
16968;DHT22;8600;54.338;10.128;2022-08-24T07:00:04;21.90;99.90
16968;DHT22;8600;54.338;10.128;2022-08-24T07:02:33;22.30;99.90
16968;DHT22;8600;54.338;10.128;2022-08-24T07:04:59;22.20;99.90
16968;DHT22;8600;54.338;10.128;2022-08-24T07:07:47;22.10;99.90
16968;DHT22;8600;54.338;10.128;2022-08-24T07:10:14;22.20;99.90
16968;DHT22;8600;54.338;10.128;2022-08-24T07:12:41;22.20;99.90
16968;DHT22;8600;54.338;10.128;2022-08-24T07:15:08;22.40;99.90
16968;DHT22;8600;54.338;10.128;2022-08-24T07:17:35;22.60;99.90
16968;DHT22;8600;54.338;10.128;2022-08-24T07:20:03;22.70;99.90
16968;DHT22;8600;54.338;10.128;2022-08-24T07:22:57;22.60;99.90
16968;DHT22;8600;54.338;10.128;2022-08-24T07:25:24;22.80;99.90
16968;DHT22;8600;54.338;10.128;2022-08-24T07:27:51;23.00;99.90
16968;DHT22;8600;54.338;10.128;2022-08-24T07:30:18;22.80;99.90
16968;DHT22;8600;54.338;10.128;2022-08-24T07:32:45;22.60;99.90
16968;DHT22;8600;54.338;10.128;2022-08-24T07:35:12;22.70;99.90
16968;DHT22;8600;54.338;10.128;2022-08-24T07:37:39;22.80;99.90
16968;DHT22;8600;54.338;10.128;2022-08-24T07:40:09;22.70;99.90
16968;DHT22;8600;54.338;10.128;2022-08-24T07:42:37;22.60;99.90
16968;DHT22;8600;54.338;10.128;2022-08-24T07:45:05;22.70;99.90
16968;DHT22;8600;54.338;10.128;2022-08-24T07:47:33;22.90;99.90
16968;DHT22;8600;54.338;10.128;2022-08-24T07:50:04;22.80;99.90
16968;DHT22;8600;54.338;10.128;2022-08-24T07:52:31;22.80;99.90
16968;DHT22;8600;54.338;10.128;2022-08-24T07:54:58;23.00;99.90
16968;DHT22;8600;54.338;10.128;2022-08-24T07:57:27;23.00;99.90
16968;DHT22;8600;54.338;10.128;2022-08-24T07:59:57;23.00;99.90
16968;DHT22;8600;54.338;10.128;2022-08-24T08:02:25;23.00;99.90
16968;DHT22;8600;54.338;10.128;2022-08-24T08:04:54;22.80;99.90
16968;DHT22;8600;54.338;10.128;2022-08-24T08:07:21;22.90;99.90
16968;DHT22;8600;54.338;10.128;2022-08-24T08:09:49;23.00;99.90
16968;DHT22;8600;54.338;10.128;2022-08-24T08:12:17;23.10;99.90
16968;DHT22;8600;54.338;10.128;2022-08-24T08:14:54;23.20;99.90
16968;DHT22;8600;54.338;10.128;2022-08-24T08:17:22;23.10;99.90
16968;DHT22;8600;54.338;10.128;2022-08-24T08:19:49;23.10;99.90
16968;DHT22;8600;54.338;10.128;2022-08-24T08:22:17;23.10;99.90
16968;DHT22;8600;54.338;10.128;2022-08-24T08:25:24;23.10;99.90
16968;DHT22;8600;54.338;10.128;2022-08-24T08:27:51;23.20;99.90
16968;DHT22;8600;54.338;10.128;2022-08-24T08:30:20;23.40;99.90
16968;DHT22;8600;54.338;10.128;2022-08-24T08:32:47;23.40;99.90
16968;DHT22;8600;54.338;10.128;2022-08-24T08:35:14;23.40;99.90
16968;DHT22;8600;54.338;10.128;2022-08-24T08:37:42;23.40;99.90
16968;DHT22;8600;54.338;10.128;2022-08-24T08:40:17;23.30;99.90
16968;DHT22;8600;54.338;10.128;2022-08-24T08:43:09;23.30;99.90
16968;DHT22;8600;54.338;10.128;2022-08-24T08:46:00;23.40;99.90
16968;DHT22;8600;54.338;10.128;2022-08-24T08:49:18;23.30;99.90
16968;DHT22;8600;54.338;10.128;2022-08-24T08:52:11;23.30;99.90
16968;DHT22;8600;54.338;10.128;2022-08-24T08:54:46;23.30;99.90
16968;DHT22;8600;54.338;10.128;2022-08-24T09:00:12;23.50;99.90
16968;DHT22;8600;54.338;10.128;2022-08-24T09:03:19;23.50;99.90
16968;DHT22;8600;54.338;10.128;2022-08-24T09:06:26;23.50;99.90
16968;DHT22;8600;54.338;10.128;2022-08-24T09:09:14;23.50;99.90
16968;DHT22;8600;54.338;10.128;2022-08-24T09:11:53;23.60;99.90
16968;DHT22;8600;54.338;10.128;2022-08-24T09:17:39;23.70;99.90
16968;DHT22;8600;54.338;10.128;2022-08-24T09:20:22;23.70;99.90
16968;DHT22;8600;54.338;10.128;2022-08-24T09:23:02;23.60;99.90
16968;DHT22;8600;54.338;10.128;2022-08-24T09:25:38;23.60;99.90
16968;DHT22;8600;54.338;10.128;2022-08-24T09:28:27;23.90;99.90
16968;DHT22;8600;54.338;10.128;2022-08-24T09:34:06;23.80;99.90
16968;DHT22;8600;54.338;10.128;2022-08-24T09:36:52;23.90;99.90
16968;DHT22;8600;54.338;10.128;2022-08-24T09:39:36;24.00;99.90
16968;DHT22;8600;54.338;10.128;2022-08-24T09:42:18;23.80;99.90
16968;DHT22;8600;54.338;10.128;2022-08-24T09:45:06;23.90;99.90
16968;DHT22;8600;54.338;10.128;2022-08-24T09:48:12;23.80;99.90
16968;DHT22;8600;54.338;10.128;2022-08-24T09:54:10;24.00;99.90
16968;DHT22;8600;54.338;10.128;2022-08-24T09:57:01;24.20;99.90
16968;DHT22;8600;54.338;10.128;2022-08-24T09:59:50;24.20;99.90
16968;DHT22;8600;54.338;10.128;2022-08-24T10:02:34;24.20;99.90
16968;DHT22;8600;54.338;10.128;2022-08-24T10:05:10;24.30;99.90
16968;DHT22;8600;54.338;10.128;2022-08-24T10:07:47;24.20;99.90
16968;DHT22;8600;54.338;10.128;2022-08-24T10:10:26;24.30;99.90
16968;DHT22;8600;54.338;10.128;2022-08-24T10:13:02;24.20;99.90
16968;DHT22;8600;54.338;10.128;2022-08-24T10:15:36;24.40;99.90
16968;DHT22;8600;54.338;10.128;2022-08-24T10:18:17;24.50;99.90
16968;DHT22;8600;54.338;10.128;2022-08-24T10:23:49;24.50;99.90
16968;DHT22;8600;54.338;10.128;2022-08-24T10:26:31;24.50;99.90
16968;DHT22;8600;54.338;10.128;2022-08-24T10:29:11;24.60;99.90
16968;DHT22;8600;54.338;10.128;2022-08-24T10:31:55;24.50;99.90
16968;DHT22;8600;54.338;10.128;2022-08-24T10:34:36;24.50;99.90
16968;DHT22;8600;54.338;10.128;2022-08-24T10:40:16;24.70;99.90
16968;DHT22;8600;54.338;10.128;2022-08-24T10:42:58;24.70;99.90
16968;DHT22;8600;54.338;10.128;2022-08-24T10:46:17;24.70;99.90
16968;DHT22;8600;54.338;10.128;2022-08-24T10:55:15;24.90;99.90
16968;DHT22;8600;54.338;10.128;2022-08-24T10:57:56;24.90;99.90
16968;DHT22;8600;54.338;10.128;2022-08-24T11:00:26;24.90;99.90
16968;DHT22;8600;54.338;10.128;2022-08-24T11:03:06;25.00;99.90
16968;DHT22;8600;54.338;10.128;2022-08-24T11:05:37;24.90;99.90
16968;DHT22;8600;54.338;10.128;2022-08-24T11:08:06;24.90;99.90
16968;DHT22;8600;54.338;10.128;2022-08-24T11:10:36;25.10;99.90
16968;DHT22;8600;54.338;10.128;2022-08-24T11:13:20;25.20;99.90
16968;DHT22;8600;54.338;10.128;2022-08-24T11:15:49;25.20;99.90
16968;DHT22;8600;54.338;10.128;2022-08-24T11:18:17;25.20;99.90
16968;DHT22;8600;54.338;10.128;2022-08-24T11:20:47;25.00;99.90
16968;DHT22;8600;54.338;10.128;2022-08-24T11:23:17;25.10;99.90
16968;DHT22;8600;54.338;10.128;2022-08-24T11:25:53;25.00;99.90
16968;DHT22;8600;54.338;10.128;2022-08-24T11:28:29;25.00;99.90
16968;DHT22;8600;54.338;10.128;2022-08-24T11:30:58;25.00;99.90
16968;DHT22;8600;54.338;10.128;2022-08-24T11:33:28;25.00;99.90
16968;DHT22;8600;54.338;10.128;2022-08-24T11:35:56;25.20;99.90
16968;DHT22;8600;54.338;10.128;2022-08-24T11:38:27;25.30;99.90
16968;DHT22;8600;54.338;10.128;2022-08-24T11:41:01;25.30;99.90
16968;DHT22;8600;54.338;10.128;2022-08-24T11:43:46;25.30;99.90
16968;DHT22;8600;54.338;10.128;2022-08-24T11:46:24;25.50;99.90
16968;DHT22;8600;54.338;10.128;2022-08-24T11:49:06;25.50;99.90
16968;DHT22;8600;54.338;10.128;2022-08-24T11:51:43;25.60;99.90
16968;DHT22;8600;54.338;10.128;2022-08-24T11:54:18;25.60;99.90
16968;DHT22;8600;54.338;10.128;2022-08-24T11:57:04;25.70;99.90
16968;DHT22;8600;54.338;10.128;2022-08-24T11:59:41;25.70;99.90
16968;DHT22;8600;54.338;10.128;2022-08-24T12:02:14;25.60;99.90
16968;DHT22;8600;54.338;10.128;2022-08-24T12:04:49;25.60;99.90
16968;DHT22;8600;54.338;10.128;2022-08-24T12:07:25;25.60;99.90
16968;DHT22;8600;54.338;10.128;2022-08-24T12:12:51;25.70;99.90
16968;DHT22;8600;54.338;10.128;2022-08-24T12:15:31;25.90;99.90
16968;DHT22;8600;54.338;10.128;2022-08-24T12:18:02;26.00;99.90
16968;DHT22;8600;54.338;10.128;2022-08-24T12:20:32;25.90;99.90
16968;DHT22;8600;54.338;10.128;2022-08-24T12:23:03;26.00;99.90
16968;DHT22;8600;54.338;10.128;2022-08-24T12:25:33;26.00;99.90
16968;DHT22;8600;54.338;10.128;2022-08-24T12:28:23;26.10;99.90
16968;DHT22;8600;54.338;10.128;2022-08-24T12:30:53;26.10;99.90
16968;DHT22;8600;54.338;10.128;2022-08-24T12:33:29;26.10;99.90
16968;DHT22;8600;54.338;10.128;2022-08-24T12:36:01;26.00;99.90
16968;DHT22;8600;54.338;10.128;2022-08-24T12:38:33;26.10;99.90
16968;DHT22;8600;54.338;10.128;2022-08-24T12:41:11;26.20;99.90
16968;DHT22;8600;54.338;10.128;2022-08-24T12:43:41;26.10;99.90
16968;DHT22;8600;54.338;10.128;2022-08-24T12:46:12;26.10;99.90
16968;DHT22;8600;54.338;10.128;2022-08-24T12:48:44;26.30;99.90
16968;DHT22;8600;54.338;10.128;2022-08-24T12:51:19;26.30;99.90
16968;DHT22;8600;54.338;10.128;2022-08-24T12:54:02;26.40;99.90
16968;DHT22;8600;54.338;10.128;2022-08-24T12:56:55;26.20;99.90
16968;DHT22;8600;54.338;10.128;2022-08-24T12:59:25;26.10;99.90
16968;DHT22;8600;54.338;10.128;2022-08-24T13:02:01;26.20;99.90
16968;DHT22;8600;54.338;10.128;2022-08-24T13:04:33;26.20;99.90
16968;DHT22;8600;54.338;10.128;2022-08-24T13:07:05;26.30;99.90
16968;DHT22;8600;54.338;10.128;2022-08-24T13:09:35;26.30;99.90
16968;DHT22;8600;54.338;10.128;2022-08-24T13:15:50;26.50;99.90
16968;DHT22;8600;54.338;10.128;2022-08-24T13:18:48;26.50;99.90
16968;DHT22;8600;54.338;10.128;2022-08-24T13:21:34;26.60;99.90
16968;DHT22;8600;54.338;10.128;2022-08-24T13:27:46;26.60;99.90
16968;DHT22;8600;54.338;10.128;2022-08-24T13:30:28;26.50;99.90
16968;DHT22;8600;54.338;10.128;2022-08-24T13:33:01;26.60;99.90
16968;DHT22;8600;54.338;10.128;2022-08-24T13:35:54;26.60;99.90
16968;DHT22;8600;54.338;10.128;2022-08-24T13:38:48;26.70;99.90
16968;DHT22;8600;54.338;10.128;2022-08-24T13:41:32;26.50;99.90
16968;DHT22;8600;54.338;10.128;2022-08-24T13:44:10;26.50;99.90
16968;DHT22;8600;54.338;10.128;2022-08-24T13:46:47;26.80;99.90
16968;DHT22;8600;54.338;10.128;2022-08-24T13:49:35;26.80;99.90
16968;DHT22;8600;54.338;10.128;2022-08-24T13:52:13;26.70;99.90
16968;DHT22;8600;54.338;10.128;2022-08-24T13:54:48;26.60;99.90
16968;DHT22;8600;54.338;10.128;2022-08-24T13:57:26;26.50;99.90
16968;DHT22;8600;54.338;10.128;2022-08-24T14:00:09;26.60;99.90
16968;DHT22;8600;54.338;10.128;2022-08-24T14:02:48;26.70;99.90
16968;DHT22;8600;54.338;10.128;2022-08-24T14:05:28;26.80;99.90
16968;DHT22;8600;54.338;10.128;2022-08-24T14:08:08;26.90;99.90
16968;DHT22;8600;54.338;10.128;2022-08-24T14:10:43;26.90;99.90
16968;DHT22;8600;54.338;10.128;2022-08-24T14:13:28;26.80;99.90
16968;DHT22;8600;54.338;10.128;2022-08-24T14:16:00;26.90;99.90
16968;DHT22;8600;54.338;10.128;2022-08-24T14:18:55;26.80;99.90
16968;DHT22;8600;54.338;10.128;2022-08-24T14:21:35;26.90;99.90
16968;DHT22;8600;54.338;10.128;2022-08-24T14:24:08;26.90;99.90
16968;DHT22;8600;54.338;10.128;2022-08-24T14:27:12;26.90;99.90
16968;DHT22;8600;54.338;10.128;2022-08-24T14:33:11;26.80;99.90
16968;DHT22;8600;54.338;10.128;2022-08-24T14:35:42;26.80;99.90
16968;DHT22;8600;54.338;10.128;2022-08-24T14:38:25;26.70;99.90
16968;DHT22;8600;54.338;10.128;2022-08-24T14:41:06;26.70;99.90
16968;DHT22;8600;54.338;10.128;2022-08-24T14:46:33;26.90;99.90
16968;DHT22;8600;54.338;10.128;2022-08-24T14:49:04;26.70;99.90
16968;DHT22;8600;54.338;10.128;2022-08-24T14:51:56;26.50;99.90
16968;DHT22;8600;54.338;10.128;2022-08-24T14:54:31;26.70;99.90
16968;DHT22;8600;54.338;10.128;2022-08-24T14:57:14;26.70;99.90
16968;DHT22;8600;54.338;10.128;2022-08-24T14:59:50;26.70;99.90
16968;DHT22;8600;54.338;10.128;2022-08-24T15:05:38;26.60;99.90
16968;DHT22;8600;54.338;10.128;2022-08-24T15:08:07;26.70;99.90
16968;DHT22;8600;54.338;10.128;2022-08-24T15:10:39;26.80;99.90
16968;DHT22;8600;54.338;10.128;2022-08-24T15:13:11;26.90;99.90
16968;DHT22;8600;54.338;10.128;2022-08-24T15:15:52;26.80;99.90
16968;DHT22;8600;54.338;10.128;2022-08-24T15:18:28;26.90;99.90
16968;DHT22;8600;54.338;10.128;2022-08-24T15:21:07;26.80;99.90
16968;DHT22;8600;54.338;10.128;2022-08-24T15:23:47;26.70;99.90
16968;DHT22;8600;54.338;10.128;2022-08-24T15:26:23;26.70;99.90
16968;DHT22;8600;54.338;10.128;2022-08-24T15:28:53;26.70;99.90
16968;DHT22;8600;54.338;10.128;2022-08-24T15:31:23;26.70;99.90
16968;DHT22;8600;54.338;10.128;2022-08-24T15:33:52;26.70;99.90
16968;DHT22;8600;54.338;10.128;2022-08-24T15:36:22;26.90;99.90
16968;DHT22;8600;54.338;10.128;2022-08-24T15:38:49;26.80;99.90
16968;DHT22;8600;54.338;10.128;2022-08-24T15:41:18;26.80;99.90
16968;DHT22;8600;54.338;10.128;2022-08-24T15:43:51;26.70;99.90
16968;DHT22;8600;54.338;10.128;2022-08-24T15:46:22;26.70;99.90
16968;DHT22;8600;54.338;10.128;2022-08-24T15:48:55;26.50;99.90
16968;DHT22;8600;54.338;10.128;2022-08-24T15:51:32;26.50;99.90
16968;DHT22;8600;54.338;10.128;2022-08-24T15:54:14;26.60;99.90
16968;DHT22;8600;54.338;10.128;2022-08-24T15:56:45;26.50;99.90
16968;DHT22;8600;54.338;10.128;2022-08-24T15:59:24;26.40;99.90
16968;DHT22;8600;54.338;10.128;2022-08-24T16:01:56;26.20;99.90
16968;DHT22;8600;54.338;10.128;2022-08-24T16:04:44;26.20;99.90
16968;DHT22;8600;54.338;10.128;2022-08-24T16:07:20;26.20;99.90
16968;DHT22;8600;54.338;10.128;2022-08-24T16:09:47;26.10;99.90
16968;DHT22;8600;54.338;10.128;2022-08-24T16:12:20;25.90;99.90
16968;DHT22;8600;54.338;10.128;2022-08-24T16:14:51;25.80;99.90
16968;DHT22;8600;54.338;10.128;2022-08-24T16:17:25;25.90;99.90
16968;DHT22;8600;54.338;10.128;2022-08-24T16:19:56;25.90;99.90
16968;DHT22;8600;54.338;10.128;2022-08-24T16:22:30;25.80;99.90
16968;DHT22;8600;54.338;10.128;2022-08-24T16:25:14;25.80;99.90
16968;DHT22;8600;54.338;10.128;2022-08-24T16:27:54;25.80;99.90
16968;DHT22;8600;54.338;10.128;2022-08-24T16:30:24;25.70;99.90
16968;DHT22;8600;54.338;10.128;2022-08-24T16:32:53;25.60;99.90
16968;DHT22;8600;54.338;10.128;2022-08-24T16:35:21;25.50;99.90
16968;DHT22;8600;54.338;10.128;2022-08-24T16:37:50;25.50;99.90
16968;DHT22;8600;54.338;10.128;2022-08-24T16:40:19;25.40;99.90
16968;DHT22;8600;54.338;10.128;2022-08-24T16:42:47;25.30;99.90
16968;DHT22;8600;54.338;10.128;2022-08-24T16:45:17;25.30;99.90
16968;DHT22;8600;54.338;10.128;2022-08-24T16:47:45;25.20;99.90
16968;DHT22;8600;54.338;10.128;2022-08-24T16:50:13;25.30;99.90
16968;DHT22;8600;54.338;10.128;2022-08-24T16:52:40;25.20;99.90